createdAt,value
2018-09-19T00:00:47.397Z,6.87
2018-09-19T00:03:21.779Z,4.47
2018-09-19T00:05:56.077Z,3.50
2018-09-19T00:08:30.299Z,3.80
2018-09-19T00:11:04.641Z,4.40
2018-09-19T00:13:38.864Z,7.33
2018-09-19T00:16:13.151Z,3.23
2018-09-19T00:18:47.484Z,5.33
2018-09-19T00:21:21.752Z,4.37
2018-09-19T00:23:56.136Z,2.70
2018-09-19T00:26:30.435Z,4.07
2018-09-19T00:29:04.684Z,5.17
2018-09-19T00:31:38.848Z,5.37
2018-09-19T00:34:13.132Z,3.10
2018-09-19T00:36:47.399Z,4.37
2018-09-19T00:39:21.608Z,5.30
2018-09-19T00:41:56.169Z,3.97
2018-09-19T00:44:30.339Z,5.97
2018-09-19T00:47:04.816Z,4.00
2018-09-19T00:49:39.069Z,5.00
2018-09-19T00:52:13.407Z,4.57
2018-09-19T00:54:47.779Z,5.50
2018-09-19T00:57:22.218Z,3.50
2018-09-19T00:59:56.435Z,3.07
2018-09-19T01:02:30.770Z,4.20
2018-09-19T01:05:05.327Z,5.00
2018-09-19T01:07:39.526Z,3.80
2018-09-19T01:10:13.828Z,3.87
2018-09-19T01:12:48.197Z,4.27
2018-09-19T01:15:22.600Z,7.33
2018-09-19T01:17:56.828Z,3.73
2018-09-19T01:20:31.244Z,4.63
2018-09-19T01:23:05.632Z,4.47
2018-09-19T01:25:39.954Z,5.20
2018-09-19T01:28:14.261Z,2.73
2018-09-19T01:30:48.628Z,7.30
2018-09-19T01:33:22.956Z,3.40
2018-09-19T01:35:57.265Z,6.33
2018-09-19T01:38:31.601Z,4.27
2018-09-19T01:41:06.180Z,5.30
2018-09-19T01:43:40.427Z,4.47
2018-09-19T01:46:14.799Z,7.43
2018-09-19T01:48:49.042Z,4.40
2018-09-19T01:51:23.419Z,4.17
2018-09-19T01:53:58.663Z,4.33
2018-09-19T01:56:33.038Z,5.43
2018-09-19T01:59:07.335Z,3.93
2018-09-19T02:01:41.532Z,3.97
2018-09-19T02:04:15.847Z,8.30
2018-09-19T02:06:50.192Z,5.03
2018-09-19T02:09:24.379Z,4.67
2018-09-19T02:11:58.567Z,4.37
2018-09-19T02:14:32.855Z,4.43
2018-09-19T02:17:07.004Z,9.37
2018-09-19T02:19:41.340Z,3.70
2018-09-19T02:22:15.725Z,3.23
2018-09-19T02:24:49.945Z,3.13
2018-09-19T02:27:24.324Z,4.43
2018-09-19T02:29:58.568Z,4.67
2018-09-19T02:32:32.937Z,4.17
2018-09-19T02:35:07.245Z,4.50
2018-09-19T02:37:41.596Z,4.43
2018-09-19T02:40:16.131Z,3.67
2018-09-19T02:42:50.493Z,2.80
2018-09-19T02:45:24.848Z,2.80
2018-09-19T02:47:59.152Z,5.30
2018-09-19T02:50:33.487Z,3.10
2018-09-19T02:53:07.734Z,5.00
2018-09-19T02:55:42.102Z,3.70
2018-09-19T02:58:16.419Z,6.37
2018-09-19T03:00:50.733Z,6.13
2018-09-19T03:03:24.991Z,2.77
2018-09-19T03:05:59.144Z,4.63
2018-09-19T03:08:33.611Z,4.37
2018-09-19T03:11:07.868Z,4.53
2018-09-19T03:13:42.067Z,4.83
2018-09-19T03:16:16.405Z,5.23
2018-09-19T03:18:50.704Z,2.60
2018-09-19T03:21:24.997Z,4.07
2018-09-19T03:23:59.343Z,3.33
2018-09-19T03:26:33.671Z,4.27
2018-09-19T03:29:07.996Z,3.60
2018-09-19T03:31:42.425Z,4.40
2018-09-19T03:34:16.631Z,4.33
2018-09-19T03:36:50.944Z,4.20
2018-09-19T03:39:25.223Z,4.17
2018-09-19T03:41:59.468Z,4.60
2018-09-19T03:44:33.812Z,3.47
2018-09-19T03:47:08.058Z,7.43
2018-09-19T03:49:42.507Z,6.30
2018-09-19T03:52:16.857Z,2.77
2018-09-19T03:54:51.055Z,5.03
2018-09-19T03:57:25.287Z,5.90
2018-09-19T03:59:59.654Z,3.90
2018-09-19T04:02:33.940Z,5.63
2018-09-19T04:05:08.099Z,6.20
2018-09-19T04:07:42.432Z,4.00
2018-09-19T04:10:16.779Z,4.77
2018-09-19T04:12:51.098Z,3.50
2018-09-19T04:15:25.441Z,3.33
2018-09-19T04:17:59.724Z,4.03
2018-09-19T04:20:34.231Z,3.93
2018-09-19T04:23:08.515Z,6.43
2018-09-19T04:25:42.869Z,9.40
2018-09-19T04:28:17.139Z,6.07
2018-09-19T04:30:51.375Z,5.60
2018-09-19T04:33:25.719Z,4.70
2018-09-19T04:35:59.923Z,4.97
2018-09-19T04:38:34.316Z,5.93
2018-09-19T04:41:08.595Z,5.03
2018-09-19T04:43:42.902Z,6.40
2018-09-19T04:46:17.322Z,5.87
2018-09-19T04:48:51.744Z,8.60
2018-09-19T04:51:26.020Z,4.03
2018-09-19T04:54:00.236Z,4.90
2018-09-19T04:56:34.919Z,7.10
2018-09-19T04:59:09.085Z,4.93
2018-09-19T05:01:43.464Z,3.87
2018-09-19T05:04:17.800Z,5.27
2018-09-19T05:06:52.365Z,5.17
2018-09-19T05:09:26.536Z,4.90
2018-09-19T05:12:00.756Z,5.63
2018-09-19T05:14:35.123Z,5.23
2018-09-19T05:17:09.447Z,5.00
2018-09-19T05:19:43.769Z,5.63
2018-09-19T05:22:17.998Z,6.00
2018-09-19T05:24:52.283Z,4.87
2018-09-19T05:27:26.698Z,4.70
2018-09-19T05:30:01.048Z,7.80
2018-09-19T05:32:35.372Z,8.57
2018-09-19T05:35:09.700Z,5.17
2018-09-19T05:37:43.995Z,6.13
2018-09-19T05:40:18.420Z,3.87
2018-09-19T05:42:52.705Z,6.07
2018-09-19T05:45:27.095Z,6.03
2018-09-19T05:48:01.390Z,8.93
2018-09-19T05:50:35.755Z,9.27
2018-09-19T05:53:10.132Z,8.13
2018-09-19T05:55:44.535Z,6.97
2018-09-19T05:58:18.770Z,11.10
2018-09-19T06:00:53.123Z,9.63
2018-09-19T06:03:27.492Z,20.57
2018-09-19T06:06:01.890Z,13.80
2018-09-19T06:08:36.170Z,19.20
2018-09-19T06:11:10.528Z,12.80
2018-09-19T06:13:44.878Z,14.93
2018-09-19T06:16:19.284Z,16.60
2018-09-19T06:18:53.604Z,13.70
2018-09-19T06:21:27.935Z,12.87
2018-09-19T06:24:02.308Z,12.90
2018-09-19T06:26:36.608Z,14.00
2018-09-19T06:29:10.905Z,17.10
2018-09-19T06:31:45.268Z,24.97
2018-09-19T06:34:19.433Z,20.10
2018-09-19T06:36:53.822Z,20.63
2018-09-19T06:39:28.140Z,13.57
2018-09-19T06:42:02.751Z,13.97
2018-09-19T06:44:37.017Z,14.10
2018-09-19T06:47:11.504Z,20.37
2018-09-19T06:49:45.800Z,19.87
2018-09-19T06:52:20.141Z,18.80
2018-09-19T06:54:54.404Z,14.07
2018-09-19T06:57:28.648Z,20.17
2018-09-19T07:00:03.015Z,20.40
2018-09-19T07:02:37.335Z,16.53
2018-09-19T07:05:11.632Z,14.17
2018-09-19T07:07:45.918Z,19.60
2018-09-19T07:10:20.229Z,16.77
2018-09-19T07:12:54.571Z,14.90
2018-09-19T07:15:28.864Z,15.17
2018-09-19T07:18:03.229Z,14.00
2018-09-19T07:20:37.492Z,20.83
2018-09-19T07:23:12.029Z,21.53
2018-09-19T07:25:46.332Z,14.77
2018-09-19T07:28:20.654Z,21.30
2018-09-19T07:30:55.166Z,14.03
2018-09-19T07:33:29.500Z,19.00
2018-09-19T07:36:03.836Z,13.47
2018-09-19T07:38:38.161Z,18.47
2018-09-19T07:41:12.935Z,11.77
2018-09-19T07:43:47.449Z,14.53
2018-09-19T07:46:21.780Z,20.07
2018-09-19T07:48:56.106Z,13.43
2018-09-19T07:51:30.520Z,14.53
2018-09-19T07:54:04.725Z,14.57
2018-09-19T07:56:39.019Z,11.93
2018-09-19T07:59:13.341Z,14.43
2018-09-19T08:01:47.782Z,13.60
2018-09-19T08:04:22.129Z,12.70
2018-09-19T08:06:56.473Z,9.43
2018-09-19T08:09:30.940Z,11.97
2018-09-19T08:12:25.914Z,11.70
2018-09-19T08:15:00.147Z,10.03
2018-09-19T08:17:34.560Z,11.57
2018-09-19T08:20:09.110Z,8.97
2018-09-19T08:22:43.647Z,10.63
2018-09-19T08:25:17.762Z,14.17
2018-09-19T08:27:52.111Z,14.47
2018-09-19T08:30:26.356Z,10.27
2018-09-19T08:33:00.595Z,13.93
2018-09-19T08:35:34.776Z,11.90
2018-09-19T08:38:09.243Z,15.60
2018-09-19T08:40:43.439Z,13.33
2018-09-19T08:43:17.752Z,12.33
2018-09-19T08:45:52.307Z,6.77
2018-09-19T08:48:26.664Z,16.60
2018-09-19T08:51:01.134Z,13.53
2018-09-19T08:53:35.338Z,17.30
2018-09-19T08:56:09.544Z,14.50
2018-09-19T08:58:43.854Z,10.30
2018-09-19T09:01:18.256Z,9.47
2018-09-19T09:03:52.643Z,10.93
2018-09-19T09:06:26.824Z,12.27
2018-09-19T09:09:01.364Z,12.07
2018-09-19T09:11:35.822Z,11.13
2018-09-19T09:14:10.031Z,16.70
2018-09-19T09:16:44.361Z,9.17
2018-09-19T09:19:18.632Z,13.03
2018-09-19T09:21:52.939Z,9.60
2018-09-19T09:24:27.188Z,12.63
2018-09-19T09:27:01.552Z,12.90
2018-09-19T09:29:35.828Z,10.27
2018-09-19T09:32:10.037Z,7.53
2018-09-19T09:34:44.369Z,9.60
2018-09-19T09:37:18.637Z,14.53
2018-09-19T09:39:53.109Z,9.63
2018-09-19T09:42:27.377Z,14.27
2018-09-19T09:45:01.795Z,11.90
2018-09-19T09:47:36.132Z,11.23
2018-09-19T09:50:10.551Z,11.53
2018-09-19T09:52:44.764Z,10.27
2018-09-19T09:55:19.200Z,13.77
2018-09-19T09:57:53.558Z,9.50
2018-09-19T10:00:33.200Z,14.80
2018-09-19T10:03:07.410Z,14.40
2018-09-19T10:05:41.888Z,10.57
2018-09-19T10:08:16.086Z,8.23
2018-09-19T10:10:50.418Z,10.37
2018-09-19T10:13:24.919Z,9.50
2018-09-19T10:15:59.265Z,8.10
2018-09-19T10:18:33.583Z,10.50
2018-09-19T10:21:07.933Z,8.20
2018-09-19T10:23:42.180Z,5.70
2018-09-19T10:26:31.484Z,9.73
2018-09-19T10:29:05.768Z,8.83
2018-09-19T10:31:40.235Z,12.37
2018-09-19T10:34:14.728Z,11.27
2018-09-19T10:36:49.183Z,9.60
2018-09-19T10:39:23.621Z,6.03
2018-09-19T10:41:57.910Z,7.67
2018-09-19T10:44:32.198Z,5.27
2018-09-19T10:47:06.534Z,7.40
2018-09-19T10:49:40.852Z,6.40
2018-09-19T10:52:15.152Z,7.37
2018-09-19T10:54:49.518Z,13.60
2018-09-19T10:57:23.852Z,6.67
2018-09-19T10:59:58.211Z,10.93
2018-09-19T11:02:32.411Z,8.17
2018-09-19T11:05:06.756Z,7.17
2018-09-19T11:07:41.059Z,6.73
2018-09-19T11:10:15.375Z,9.07
2018-09-19T11:12:49.584Z,7.40
2018-09-19T11:15:23.793Z,10.10
2018-09-19T11:17:57.856Z,9.17
2018-09-19T11:20:32.071Z,9.23
2018-09-19T11:23:06.343Z,6.27
2018-09-19T11:25:40.760Z,9.33
2018-09-19T11:28:15.116Z,12.47
2018-09-19T11:30:49.364Z,8.67
2018-09-19T11:33:23.624Z,9.63
2018-09-19T11:35:58.080Z,4.87
2018-09-19T11:38:32.468Z,10.87
2018-09-19T11:41:06.856Z,6.40
2018-09-19T11:43:41.144Z,5.47
2018-09-19T11:46:15.572Z,7.80
2018-09-19T11:48:50.002Z,9.23
2018-09-19T11:51:24.308Z,10.97
2018-09-19T11:53:58.544Z,7.00
2018-09-19T11:56:32.792Z,7.07
2018-09-19T11:59:07.055Z,10.17
2018-09-19T12:01:41.396Z,8.30
2018-09-19T12:04:15.671Z,8.47
2018-09-19T12:06:49.897Z,12.60
2018-09-19T12:09:24.204Z,7.33
2018-09-19T12:11:58.717Z,8.60
2018-09-19T12:14:32.959Z,11.93
2018-09-19T12:17:07.280Z,7.90
2018-09-19T12:19:41.528Z,7.43
2018-09-19T12:22:15.711Z,8.90
2018-09-19T12:24:49.934Z,8.90
2018-09-19T12:27:24.236Z,8.50
2018-09-19T12:29:58.591Z,8.00
2018-09-19T12:32:32.732Z,9.27
2018-09-19T12:35:07.026Z,7.53
2018-09-19T12:37:41.356Z,9.23
2018-09-19T12:40:15.643Z,5.20
2018-09-19T12:42:49.846Z,10.33
2018-09-19T12:45:24.125Z,9.20
2018-09-19T12:47:58.452Z,9.87
2018-09-19T12:50:32.784Z,15.20
2018-09-19T12:53:07.120Z,11.07
2018-09-19T12:55:41.516Z,7.67
2018-09-19T12:58:15.784Z,10.90
2018-09-19T13:00:50.864Z,10.63
2018-09-19T13:03:25.048Z,10.80
2018-09-19T13:05:59.284Z,8.40
2018-09-19T13:08:33.637Z,8.70
2018-09-19T13:11:09.152Z,10.17
2018-09-19T13:13:43.416Z,8.53
2018-09-19T13:16:17.637Z,8.50
2018-09-19T13:18:52.018Z,10.97
2018-09-19T13:21:26.319Z,8.43
2018-09-19T13:24:00.549Z,7.30
2018-09-19T13:26:34.864Z,6.30
2018-09-19T13:29:09.428Z,6.43
2018-09-19T13:31:43.632Z,6.63
2018-09-19T13:34:17.869Z,8.50
2018-09-19T13:36:52.266Z,6.43
2018-09-19T13:39:26.459Z,10.20
2018-09-19T13:42:00.756Z,9.10
2018-09-19T13:44:35.272Z,8.67
2018-09-19T13:47:09.515Z,11.73
2018-09-19T13:49:48.196Z,6.50
2018-09-19T13:52:22.424Z,7.97
2018-09-19T13:54:56.796Z,7.90
2018-09-19T13:57:31.092Z,5.60
2018-09-19T14:00:05.428Z,7.60
2018-09-19T14:02:39.721Z,7.20
2018-09-19T14:05:14.096Z,8.47
2018-09-19T14:07:48.296Z,5.13
2018-09-19T14:10:22.808Z,6.07
2018-09-19T14:12:57.020Z,6.70
2018-09-19T14:15:31.329Z,5.57
2018-09-19T14:18:05.957Z,6.63
2018-09-19T14:20:40.117Z,7.20
2018-09-19T14:23:14.319Z,4.73
2018-09-19T14:25:48.513Z,6.90
2018-09-19T14:28:22.897Z,9.23
2018-09-19T14:30:57.104Z,4.70
2018-09-19T14:33:31.386Z,6.10
2018-09-19T14:36:05.796Z,8.07
2018-09-19T14:38:40.091Z,6.50
2018-09-19T14:41:14.545Z,6.47
2018-09-19T14:43:48.747Z,8.10
2018-09-19T14:46:23.073Z,6.47
2018-09-19T14:48:57.354Z,6.23
2018-09-19T14:51:31.776Z,5.57
2018-09-19T14:54:06.312Z,8.27
2018-09-19T14:56:40.703Z,6.83
2018-09-19T14:59:15.032Z,7.67
2018-09-19T15:01:49.444Z,9.37
2018-09-19T15:04:23.785Z,12.53
2018-09-19T15:06:58.008Z,5.93
2018-09-19T15:09:32.392Z,7.87
2018-09-19T15:12:06.740Z,4.57
2018-09-19T15:14:41.045Z,16.23
2018-09-19T15:17:15.264Z,7.13
2018-09-19T15:19:49.623Z,8.83
2018-09-19T15:22:24.031Z,8.07
2018-09-19T15:24:58.304Z,17.17
2018-09-19T15:27:32.652Z,6.37
2018-09-19T15:30:28.660Z,8.80
2018-09-19T15:33:02.844Z,9.03
2018-09-19T15:38:36.581Z,5.30
2018-09-19T15:41:10.883Z,6.97
2018-09-19T15:43:45.037Z,5.63
2018-09-19T15:46:20.048Z,6.50
2018-09-19T15:48:54.373Z,10.33
2018-09-19T15:51:28.803Z,10.13
2018-09-19T15:54:03.335Z,7.20
2018-09-19T15:56:37.620Z,8.87
2018-09-19T15:59:12.104Z,6.43
2018-09-19T16:01:46.295Z,4.00
2018-09-19T16:04:20.500Z,8.83
2018-09-19T16:06:54.876Z,5.43
2018-09-19T16:09:29.219Z,13.53
2018-09-19T16:12:03.438Z,9.67
2018-09-19T16:14:37.616Z,7.90
2018-09-19T16:17:11.928Z,9.30
2018-09-19T16:19:46.200Z,5.67
2018-09-19T16:22:20.592Z,9.40
2018-09-19T16:24:54.780Z,4.17
2018-09-19T16:27:29.128Z,7.93
2018-09-19T16:30:03.467Z,9.83
2018-09-19T16:32:38.272Z,5.63
2018-09-19T16:35:12.468Z,8.93
2018-09-19T16:37:46.780Z,6.07
2018-09-19T16:40:21.152Z,4.80
2018-09-19T16:42:55.416Z,10.03
2018-09-19T16:45:29.787Z,7.03
2018-09-19T16:48:03.970Z,7.87
2018-09-19T16:50:38.260Z,4.77
2018-09-19T16:53:12.557Z,12.20
2018-09-19T16:55:46.896Z,5.87
2018-09-19T16:58:21.184Z,6.57
2018-09-19T17:00:55.428Z,8.17
2018-09-19T17:03:29.616Z,6.40
2018-09-19T17:06:04.044Z,6.97
2018-09-19T17:08:38.400Z,4.83
2018-09-19T17:11:12.726Z,6.77
2018-09-19T17:13:47.059Z,6.17
2018-09-19T17:16:21.313Z,4.60
2018-09-19T17:18:55.675Z,5.77
2018-09-19T17:21:30.000Z,6.37
2018-09-19T17:24:04.413Z,4.70
2018-09-19T17:26:38.720Z,9.00
2018-09-19T17:29:12.965Z,9.40
2018-09-19T17:31:47.320Z,8.27
2018-09-19T17:34:21.616Z,6.13
2018-09-19T17:36:55.876Z,9.27
2018-09-19T17:39:30.083Z,5.77
2018-09-19T17:42:04.268Z,4.03
2018-09-19T17:44:38.676Z,6.03
2018-09-19T17:47:13.068Z,7.17
2018-09-19T17:49:47.469Z,6.03
2018-09-19T17:52:21.671Z,10.07
2018-09-19T17:54:56.001Z,8.03
2018-09-19T17:57:30.288Z,9.20
2018-09-19T18:00:05.844Z,11.97
2018-09-19T18:02:40.656Z,7.83
2018-09-19T18:05:15.069Z,4.33
2018-09-19T18:07:49.283Z,5.70
2018-09-19T18:10:23.648Z,6.63
2018-09-19T18:12:57.952Z,7.10
2018-09-19T18:15:32.399Z,6.90
2018-09-19T18:18:06.792Z,11.83
2018-09-19T18:20:41.096Z,5.90
2018-09-19T18:23:15.437Z,4.70
2018-09-19T18:25:49.740Z,6.03
2018-09-19T18:28:24.061Z,9.00
2018-09-19T18:30:58.451Z,4.23
2018-09-19T18:33:32.756Z,5.10
2018-09-19T18:36:07.573Z,4.83
2018-09-19T18:38:41.928Z,9.00
2018-09-19T18:41:16.352Z,7.83
2018-09-19T18:43:50.740Z,11.63
2018-09-19T18:46:25.128Z,8.07
2018-09-19T18:48:59.304Z,10.53
2018-09-19T18:51:33.743Z,6.40
2018-09-19T18:54:08.211Z,4.27
2018-09-19T18:56:42.505Z,7.37
2018-09-19T18:59:16.727Z,10.17
2018-09-19T19:01:51.098Z,7.13
2018-09-19T19:04:25.250Z,4.27
2018-09-19T19:06:59.583Z,8.17
2018-09-19T19:09:33.967Z,6.87
2018-09-19T19:12:08.274Z,6.33
2018-09-19T19:14:42.602Z,6.90
2018-09-19T19:17:16.839Z,5.63
2018-09-19T19:19:51.180Z,5.40
2018-09-19T19:22:25.489Z,7.13
2018-09-19T19:24:59.876Z,7.50
2018-09-19T19:27:34.331Z,4.57
2018-09-19T19:30:08.806Z,5.07
2018-09-19T19:32:43.052Z,4.73
2018-09-19T19:35:17.456Z,6.63
2018-09-19T19:37:51.799Z,6.10
2018-09-19T19:40:26.007Z,7.43
2018-09-19T19:43:00.323Z,4.60
2018-09-19T19:45:34.644Z,6.37
2018-09-19T19:48:08.945Z,7.40
2018-09-19T19:50:43.252Z,6.37
2018-09-19T19:53:17.554Z,4.07
2018-09-19T19:55:51.952Z,8.20
2018-09-19T19:58:26.318Z,3.73
2018-09-19T20:01:00.699Z,6.07
2018-09-19T20:03:34.993Z,6.67
2018-09-19T20:06:09.393Z,4.33
2018-09-19T20:08:43.800Z,5.00
2018-09-19T20:11:18.038Z,6.50
2018-09-19T20:13:52.300Z,6.43
2018-09-19T20:16:26.560Z,6.17
2018-09-19T20:19:00.816Z,6.23
2018-09-19T20:21:35.036Z,4.97
2018-09-19T20:24:09.336Z,6.97
2018-09-19T20:26:43.673Z,4.80
2018-09-19T20:29:17.868Z,5.17
2018-09-19T20:31:52.229Z,3.70
2018-09-19T20:34:26.568Z,4.47
2018-09-19T20:37:00.906Z,4.00
2018-09-19T20:39:35.244Z,4.13
2018-09-19T20:42:09.528Z,3.93
2018-09-19T20:44:43.791Z,4.43
2018-09-19T20:47:17.996Z,4.77
2018-09-19T20:49:52.184Z,6.37
2018-09-19T20:52:26.396Z,3.83
2018-09-19T20:55:00.719Z,9.57
2018-09-19T20:57:34.959Z,8.10
2018-09-19T21:00:09.307Z,4.23
2018-09-19T21:02:43.704Z,5.40
2018-09-19T21:05:17.947Z,6.33
2018-09-19T21:07:52.368Z,4.33
2018-09-19T21:10:26.655Z,6.37
2018-09-19T21:13:00.836Z,8.50
2018-09-19T21:15:35.224Z,5.53
2018-09-19T21:18:09.516Z,6.27
2018-09-19T21:20:43.904Z,6.73
2018-09-19T21:23:18.240Z,5.53
2018-09-19T21:25:52.508Z,6.90
2018-09-19T21:28:26.689Z,5.50
2018-09-19T21:31:01.280Z,3.83
2018-09-19T21:33:35.512Z,4.27
2018-09-19T21:36:09.692Z,4.53
2018-09-19T21:38:43.912Z,5.73
2018-09-19T21:41:18.236Z,4.40
2018-09-19T21:43:52.545Z,4.67
2018-09-19T21:46:26.888Z,5.43
2018-09-19T21:49:01.293Z,6.37
2018-09-19T21:51:35.572Z,4.90
2018-09-19T21:54:09.773Z,3.83
2018-09-19T21:56:44.056Z,5.00
2018-09-19T21:59:18.391Z,6.70
2018-09-19T22:01:57.901Z,4.30
2018-09-19T22:04:32.116Z,7.77
2018-09-19T22:07:06.439Z,4.43
2018-09-19T22:09:40.772Z,6.80
2018-09-19T22:12:15.127Z,4.70
2018-09-19T22:14:49.345Z,5.00
2018-09-19T22:17:23.747Z,4.97
2018-09-19T22:19:57.970Z,8.43
2018-09-19T22:22:32.256Z,5.33
2018-09-19T22:25:06.854Z,4.03
2018-09-19T22:27:41.291Z,6.63
2018-09-19T22:30:15.608Z,2.87
2018-09-19T22:32:49.936Z,4.10
2018-09-19T22:35:24.279Z,4.47
2018-09-19T22:37:58.568Z,9.27
2018-09-19T22:40:32.937Z,4.10
2018-09-19T22:43:07.252Z,4.60
2018-09-19T22:45:41.628Z,7.23
2018-09-19T22:48:15.928Z,4.17
2018-09-19T22:50:50.140Z,4.90
2018-09-19T22:53:24.469Z,4.27
2018-09-19T22:55:58.616Z,7.63
2018-09-19T22:58:32.924Z,6.53
2018-09-19T23:01:07.404Z,5.47
2018-09-19T23:03:41.839Z,4.30
2018-09-19T23:06:16.183Z,4.10
2018-09-19T23:08:50.511Z,4.77
2018-09-19T23:11:24.972Z,5.53
2018-09-19T23:13:59.296Z,5.53
2018-09-19T23:16:33.560Z,5.87
2018-09-19T23:19:07.696Z,5.43
2018-09-19T23:21:42.067Z,5.77
2018-09-19T23:24:16.377Z,4.30
2018-09-19T23:26:50.700Z,4.63
2018-09-19T23:29:24.851Z,4.87
2018-09-19T23:31:59.315Z,10.27
2018-09-19T23:34:33.568Z,10.00
2018-09-19T23:37:07.840Z,4.37
2018-09-19T23:39:42.111Z,5.97
2018-09-19T23:42:16.317Z,5.27
2018-09-19T23:44:50.625Z,5.40
2018-09-19T23:47:25.039Z,6.17
2018-09-19T23:49:59.448Z,6.83
2018-09-19T23:52:33.632Z,5.40
2018-09-19T23:55:07.938Z,4.27
2018-09-19T23:57:42.308Z,4.37
